Airey, Mississippi
Current Conditions -  °F | °C
As of 3:53 PM on Friday 31 Oct 2014 (Local Time) from KGPT Reporting Station
Scattered Clouds Scattered Clouds  
Wind Chill: 74°   Ceiling: Unl
Heat Index: 74°   Visibility: 10mi
Dew Point: 44°   Wind: 21mph
Humidity: 34%   Direction: 300°WNW
Pressure: 29.96"   Gusts: NA
Location:  30.603°N, 89.0932°W
Report Text: KGPT 312053Z 30018KT 10SM SCT070 23/07 A2996 RMK AO2 SLP143 T02330067 55008 $
Loading
Personal Weather Stations






























Interactive Weather Map
Tropical Storm Tracking
New forecast layout! Learn more

10-Day Weather Forecast

Advertisements
Track Severe Weather on mobile